sensor_id;sensor_type;location;lat;lon;timestamp;pressure;altitude;pressure_sealevel;temperature;humidity
23166;BME280;11751;42.700;24.170;2023-03-04T00:01:31;93950.41;;;6.51;nan
23166;BME280;11751;42.700;24.170;2023-03-04T00:03:56;93939.56;;;6.34;nan
23166;BME280;11751;42.700;24.170;2023-03-04T00:06:22;93944.16;;;6.45;nan
23166;BME280;11751;42.700;24.170;2023-03-04T00:08:47;93939.78;;;6.49;nan
23166;BME280;11751;42.700;24.170;2023-03-04T00:11:13;93941.06;;;6.61;nan
23166;BME280;11751;42.700;24.170;2023-03-04T00:13:38;93924.06;;;6.65;nan
23166;BME280;11751;42.700;24.170;2023-03-04T00:16:04;93937.41;;;6.66;nan
23166;BME280;11751;42.700;24.170;2023-03-04T00:18:29;93930.06;;;6.69;nan
23166;BME280;11751;42.700;24.170;2023-03-04T00:20:55;93929.63;;;6.65;nan
23166;BME280;11751;42.700;24.170;2023-03-04T00:23:20;93926.22;;;6.59;nan
23166;BME280;11751;42.700;24.170;2023-03-04T00:25:46;93923.53;;;6.53;nan
23166;BME280;11751;42.700;24.170;2023-03-04T00:28:11;93927.72;;;6.60;nan
23166;BME280;11751;42.700;24.170;2023-03-04T00:30:36;93926.63;;;6.63;nan
23166;BME280;11751;42.700;24.170;2023-03-04T00:33:02;93934.44;;;6.64;nan
23166;BME280;11751;42.700;24.170;2023-03-04T00:35:27;93924.06;;;6.65;nan
23166;BME280;11751;42.700;24.170;2023-03-04T00:37:53;93928.13;;;6.64;nan
23166;BME280;11751;42.700;24.170;2023-03-04T00:40:18;93929.63;;;6.65;nan
23166;BME280;11751;42.700;24.170;2023-03-04T00:42:43;93931.84;;;6.66;nan
23166;BME280;11751;42.700;24.170;2023-03-04T00:45:09;93925.56;;;6.66;nan
23166;BME280;11751;42.700;24.170;2023-03-04T00:47:35;93924.28;;;6.67;nan
23166;BME280;11751;42.700;24.170;2023-03-04T00:50:00;93929.50;;;6.70;nan
23166;BME280;11751;42.700;24.170;2023-03-04T00:52:26;93929.72;;;6.72;nan
23166;BME280;11751;42.700;24.170;2023-03-04T00:54:51;93926.41;;;6.74;nan
23166;BME280;11751;42.700;24.170;2023-03-04T00:57:17;93940.97;;;6.79;nan
23166;BME280;11751;42.700;24.170;2023-03-04T00:59:42;93929.63;;;6.78;nan
23166;BME280;11751;42.700;24.170;2023-03-04T01:02:08;93928.00;;;6.82;nan
23166;BME280;11751;42.700;24.170;2023-03-04T01:04:34;93921.91;;;6.71;nan
23166;BME280;11751;42.700;24.170;2023-03-04T01:07:00;93930.06;;;6.69;nan
23166;BME280;11751;42.700;24.170;2023-03-04T01:09:25;93930.28;;;6.58;nan
23166;BME280;11751;42.700;24.170;2023-03-04T01:11:51;93929.84;;;6.54;nan
23166;BME280;11751;42.700;24.170;2023-03-04T01:14:17;93928.13;;;6.51;nan
23166;BME280;11751;42.700;24.170;2023-03-04T01:16:42;93920.84;;;6.48;nan
23166;BME280;11751;42.700;24.170;2023-03-04T01:19:07;93921.28;;;6.52;nan
23166;BME280;11751;42.700;24.170;2023-03-04T01:21:33;93912.28;;;6.46;nan
23166;BME280;11751;42.700;24.170;2023-03-04T01:23:58;93907.16;;;6.50;nan
23166;BME280;11751;42.700;24.170;2023-03-04T01:26:24;93906.84;;;6.53;nan
23166;BME280;11751;42.700;24.170;2023-03-04T01:28:49;93904.28;;;6.55;nan
23166;BME280;11751;42.700;24.170;2023-03-04T01:31:14;93907.25;;;6.57;nan
23166;BME280;11751;42.700;24.170;2023-03-04T01:33:40;93897.97;;;6.55;nan
23166;BME280;11751;42.700;24.170;2023-03-04T01:36:05;93903.63;;;6.62;nan
23166;BME280;11751;42.700;24.170;2023-03-04T01:38:31;93905.88;;;6.64;nan
23166;BME280;11751;42.700;24.170;2023-03-04T01:40:57;93904.81;;;6.67;nan
23166;BME280;11751;42.700;24.170;2023-03-04T01:43:25;93893.34;;;6.70;nan
23166;BME280;11751;42.700;24.170;2023-03-04T01:45:52;93896.00;;;6.76;nan
23166;BME280;11751;42.700;24.170;2023-03-04T01:48:21;93899.63;;;6.71;nan
23166;BME280;11751;42.700;24.170;2023-03-04T01:50:48;93893.00;;;6.74;nan
23166;BME280;11751;42.700;24.170;2023-03-04T01:53:23;93891.72;;;6.75;nan
23166;BME280;11751;42.700;24.170;2023-03-04T01:55:53;93896.00;;;6.76;nan
23166;BME280;11751;42.700;24.170;2023-03-04T01:58:19;93893.22;;;6.63;nan
23166;BME280;11751;42.700;24.170;2023-03-04T02:00:44;93888.50;;;6.71;nan
23166;BME280;11751;42.700;24.170;2023-03-04T02:03:13;93892.16;;;6.78;nan
23166;BME280;11751;42.700;24.170;2023-03-04T02:05:44;93887.88;;;6.78;nan
23166;BME280;11751;42.700;24.170;2023-03-04T02:08:11;93897.72;;;6.78;nan
23166;BME280;11751;42.700;24.170;2023-03-04T02:10:38;93884.88;;;6.76;nan
23166;BME280;11751;42.700;24.170;2023-03-04T02:13:05;93886.59;;;6.78;nan
23166;BME280;11751;42.700;24.170;2023-03-04T02:15:30;93879.75;;;6.79;nan
23166;BME280;11751;42.700;24.170;2023-03-04T02:17:56;93873.53;;;6.86;nan
23166;BME280;11751;42.700;24.170;2023-03-04T02:23:00;93890.44;;;6.88;nan
23166;BME280;11751;42.700;24.170;2023-03-04T02:25:43;93876.53;;;6.88;nan
23166;BME280;11751;42.700;24.170;2023-03-04T02:28:10;93884.88;;;6.88;nan
23166;BME280;11751;42.700;24.170;2023-03-04T02:30:35;93887.88;;;6.78;nan
23166;BME280;11751;42.700;24.170;2023-03-04T02:33:01;93890.44;;;6.76;nan
23166;BME280;11751;42.700;24.170;2023-03-04T02:35:26;93888.22;;;6.74;nan
23166;BME280;11751;42.700;24.170;2023-03-04T02:37:52;93890.00;;;6.72;nan
23166;BME280;11751;42.700;24.170;2023-03-04T02:40:22;93880.59;;;6.75;nan
23166;BME280;11751;42.700;24.170;2023-03-04T02:42:49;93880.81;;;6.77;nan
23166;BME280;11751;42.700;24.170;2023-03-04T02:48:02;93888.94;;;6.75;nan
23166;BME280;11751;42.700;24.170;2023-03-04T02:50:31;93887.44;;;6.74;nan
23166;BME280;11751;42.700;24.170;2023-03-04T02:52:57;93888.22;;;6.74;nan
23166;BME280;11751;42.700;24.170;2023-03-04T02:55:23;93876.09;;;6.72;nan
23166;BME280;11751;42.700;24.170;2023-03-04T02:57:48;93881.16;;;6.73;nan
23166;BME280;11751;42.700;24.170;2023-03-04T03:00:14;93886.38;;;6.77;nan
23166;BME280;11751;42.700;24.170;2023-03-04T03:02:40;93884.16;;;6.75;nan
23166;BME280;11751;42.700;24.170;2023-03-04T03:05:06;93890.66;;;6.78;nan
23166;BME280;11751;42.700;24.170;2023-03-04T03:07:31;93889.81;;;6.70;nan
23166;BME280;11751;42.700;24.170;2023-03-04T03:09:59;93887.88;;;6.78;nan
23166;BME280;11751;42.700;24.170;2023-03-04T03:12:25;93884.03;;;6.68;nan
23166;BME280;11751;42.700;24.170;2023-03-04T03:14:51;93880.59;;;6.62;nan
23166;BME280;11751;42.700;24.170;2023-03-04T03:17:16;93888.31;;;6.69;nan
23166;BME280;11751;42.700;24.170;2023-03-04T03:19:41;93893.78;;;6.74;nan
23166;BME280;11751;42.700;24.170;2023-03-04T03:22:07;93891.00;;;6.74;nan
23166;BME280;11751;42.700;24.170;2023-03-04T03:24:32;93892.81;;;6.59;nan
23166;BME280;11751;42.700;24.170;2023-03-04T03:26:57;93892.59;;;6.70;nan
23166;BME280;11751;42.700;24.170;2023-03-04T03:29:23;93887.47;;;6.48;nan
23166;BME280;11751;42.700;24.170;2023-03-04T03:31:48;93883.19;;;6.60;nan
23166;BME280;11751;42.700;24.170;2023-03-04T03:34:14;93879.22;;;6.68;nan
23166;BME280;11751;42.700;24.170;2023-03-04T03:36:39;93888.94;;;6.75;nan
23166;BME280;11751;42.700;24.170;2023-03-04T03:39:04;93879.97;;;6.69;nan
23166;BME280;11751;42.700;24.170;2023-03-04T03:41:30;93872.59;;;6.71;nan
23166;BME280;11751;42.700;24.170;2023-03-04T03:43:55;93881.88;;;6.74;nan
23166;BME280;11751;42.700;24.170;2023-03-04T03:46:21;93875.03;;;6.62;nan
23166;BME280;11751;42.700;24.170;2023-03-04T03:48:47;93880.31;;;6.65;nan
23166;BME280;11751;42.700;24.170;2023-03-04T03:51:12;93877.81;;;6.75;nan
23166;BME280;11751;42.700;24.170;2023-03-04T03:53:37;93877.09;;;6.74;nan
23166;BME280;11751;42.700;24.170;2023-03-04T03:56:03;93871.19;;;6.78;nan
23166;BME280;11751;42.700;24.170;2023-03-04T03:58:29;93872.81;;;6.73;nan
23166;BME280;11751;42.700;24.170;2023-03-04T04:00:54;93870.97;;;6.63;nan
23166;BME280;11751;42.700;24.170;2023-03-04T04:03:20;93868.09;;;6.68;nan
23166;BME280;11751;42.700;24.170;2023-03-04T04:05:45;93876.53;;;6.63;nan
23166;BME280;11751;42.700;24.170;2023-03-04T04:08:17;93867.78;;;6.59;nan
23166;BME280;11751;42.700;24.170;2023-03-04T04:10:43;93868.41;;;6.65;nan
23166;BME280;11751;42.700;24.170;2023-03-04T04:13:09;93867.13;;;6.53;nan
23166;BME280;11751;42.700;24.170;2023-03-04T04:15:34;93866.50;;;6.47;nan
23166;BME280;11751;42.700;24.170;2023-03-04T04:18:01;93865.66;;;6.52;nan
23166;BME280;11751;42.700;24.170;2023-03-04T04:20:26;93866.06;;;6.56;nan
23166;BME280;11751;42.700;24.170;2023-03-04T04:22:52;93866.41;;;6.52;nan
23166;BME280;11751;42.700;24.170;2023-03-04T04:25:17;93870.47;;;6.51;nan
23166;BME280;11751;42.700;24.170;2023-03-04T04:27:43;93868.00;;;6.61;nan
23166;BME280;11751;42.700;24.170;2023-03-04T04:30:09;93865.41;;;6.63;nan
23166;BME280;11751;42.700;24.170;2023-03-04T04:32:35;93869.47;;;6.62;nan
23166;BME280;11751;42.700;24.170;2023-03-04T04:35:00;93869.03;;;6.71;nan
23166;BME280;11751;42.700;24.170;2023-03-04T04:37:25;93868.84;;;6.69;nan
23166;BME280;11751;42.700;24.170;2023-03-04T04:39:51;93879.22;;;6.68;nan
23166;BME280;11751;42.700;24.170;2023-03-04T04:42:19;93872.59;;;6.71;nan
23166;BME280;11751;42.700;24.170;2023-03-04T04:44:45;93876.97;;;6.67;nan
23166;BME280;11751;42.700;24.170;2023-03-04T04:47:10;93876.09;;;6.72;nan
23166;BME280;11751;42.700;24.170;2023-03-04T04:49:36;93882.94;;;6.71;nan
23166;BME280;11751;42.700;24.170;2023-03-04T04:52:01;93875.91;;;6.70;nan
23166;BME280;11751;42.700;24.170;2023-03-04T04:54:26;93875.81;;;6.62;nan
23166;BME280;11751;42.700;24.170;2023-03-04T04:56:52;93881.03;;;6.66;nan
23166;BME280;11751;42.700;24.170;2023-03-04T04:59:18;93887.03;;;6.70;nan
23166;BME280;11751;42.700;24.170;2023-03-04T05:01:43;93882.44;;;6.59;nan
23166;BME280;11751;42.700;24.170;2023-03-04T05:04:08;93880.50;;;6.67;nan
23166;BME280;11751;42.700;24.170;2023-03-04T05:06:34;93887.25;;;6.59;nan
23166;BME280;11751;42.700;24.170;2023-03-04T05:08:59;93891.84;;;6.69;nan
23166;BME280;11751;42.700;24.170;2023-03-04T05:11:26;93892.78;;;6.72;nan
23166;BME280;11751;42.700;24.170;2023-03-04T05:13:51;93890.78;;;6.72;nan
23166;BME280;11751;42.700;24.170;2023-03-04T05:16:17;93891.94;;;6.77;nan
23166;BME280;11751;42.700;24.170;2023-03-04T05:18:43;93891.19;;;6.76;nan
23166;BME280;11751;42.700;24.170;2023-03-04T05:21:09;93890.88;;;6.79;nan
23166;BME280;11751;42.700;24.170;2023-03-04T05:23:39;93892.16;;;6.78;nan
23166;BME280;11751;42.700;24.170;2023-03-04T05:26:07;93889.78;;;6.82;nan
23166;BME280;11751;42.700;24.170;2023-03-04T05:28:33;93883.81;;;6.78;nan
23166;BME280;11751;42.700;24.170;2023-03-04T05:30:59;93890.78;;;6.85;nan
23166;BME280;11751;42.700;24.170;2023-03-04T05:33:24;93902.84;;;6.87;nan
23166;BME280;11751;42.700;24.170;2023-03-04T05:35:50;93904.47;;;6.83;nan
23166;BME280;11751;42.700;24.170;2023-03-04T05:38:17;93893.78;;;6.74;nan
23166;BME280;11751;42.700;24.170;2023-03-04T05:40:43;93895.13;;;6.80;nan
23166;BME280;11751;42.700;24.170;2023-03-04T05:43:09;93893.56;;;6.85;nan
23166;BME280;11751;42.700;24.170;2023-03-04T05:45:35;93885.72;;;6.83;nan
23166;BME280;11751;42.700;24.170;2023-03-04T05:48:01;93886.38;;;6.89;nan
23166;BME280;11751;42.700;24.170;2023-03-04T05:50:27;93893.44;;;6.78;nan
23166;BME280;11751;42.700;24.170;2023-03-04T05:52:53;93893.63;;;6.92;nan
23166;BME280;11751;42.700;24.170;2023-03-04T05:55:19;93891.81;;;6.95;nan
23166;BME280;11751;42.700;24.170;2023-03-04T05:57:45;93899.94;;;6.93;nan
23166;BME280;11751;42.700;24.170;2023-03-04T06:00:11;93898.84;;;6.96;nan
23166;BME280;11751;42.700;24.170;2023-03-04T06:02:37;93905.59;;;7.00;nan
23166;BME280;11751;42.700;24.170;2023-03-04T06:05:03;93904.84;;;7.00;nan
23166;BME280;11751;42.700;24.170;2023-03-04T06:07:29;93898.22;;;7.03;nan
23166;BME280;11751;42.700;24.170;2023-03-04T06:09:54;93914.69;;;7.01;nan
23166;BME280;11751;42.700;24.170;2023-03-04T06:12:20;93913.63;;;7.04;nan
23166;BME280;11751;42.700;24.170;2023-03-04T06:14:45;93914.16;;;7.02;nan
23166;BME280;11751;42.700;24.170;2023-03-04T06:17:10;93905.59;;;7.00;nan
23166;BME280;11751;42.700;24.170;2023-03-04T06:19:36;93904.75;;;7.05;nan
23166;BME280;11751;42.700;24.170;2023-03-04T06:22:07;93912.88;;;7.03;nan
23166;BME280;11751;42.700;24.170;2023-03-04T06:24:32;93919.84;;;6.97;nan
23166;BME280;11751;42.700;24.170;2023-03-04T06:26:58;93926.38;;;6.99;nan
23166;BME280;11751;42.700;24.170;2023-03-04T06:29:23;93927.34;;;6.89;nan
23166;BME280;11751;42.700;24.170;2023-03-04T06:31:49;93933.91;;;6.78;nan
23166;BME280;11751;42.700;24.170;2023-03-04T06:34:14;93929.84;;;6.79;nan
23166;BME280;11751;42.700;24.170;2023-03-04T06:36:40;93926.81;;;6.90;nan
23166;BME280;11751;42.700;24.170;2023-03-04T06:39:06;93924.91;;;6.85;nan
23166;BME280;11751;42.700;24.170;2023-03-04T06:41:32;93928.56;;;6.68;nan
23166;BME280;11751;42.700;24.170;2023-03-04T06:43:57;93932.06;;;6.81;nan
23166;BME280;11751;42.700;24.170;2023-03-04T06:46:23;93924.06;;;6.78;nan
23166;BME280;11751;42.700;24.170;2023-03-04T06:48:48;93927.69;;;6.85;nan
23166;BME280;11751;42.700;24.170;2023-03-04T06:51:14;93922.66;;;6.58;nan
23166;BME280;11751;42.700;24.170;2023-03-04T06:53:40;93928.22;;;6.84;nan
23166;BME280;11751;42.700;24.170;2023-03-04T06:56:06;93930.69;;;6.87;nan
23166;BME280;11751;42.700;24.170;2023-03-04T06:58:32;93936.66;;;6.91;nan
23166;BME280;11751;42.700;24.170;2023-03-04T07:03:36;93932.19;;;6.88;nan
23166;BME280;11751;42.700;24.170;2023-03-04T07:06:02;93928.63;;;7.01;nan
23166;BME280;11751;42.700;24.170;2023-03-04T07:08:27;93931.69;;;7.10;nan
23166;BME280;11751;42.700;24.170;2023-03-04T07:10:52;93934.69;;;7.12;nan
23166;BME280;11751;42.700;24.170;2023-03-04T07:13:18;93937.47;;;7.12;nan
23166;BME280;11751;42.700;24.170;2023-03-04T07:15:43;93940.78;;;7.24;nan
23166;BME280;11751;42.700;24.170;2023-03-04T07:18:09;93935.28;;;7.31;nan
23166;BME280;11751;42.700;24.170;2023-03-04T07:20:34;93937.56;;;7.33;nan
23166;BME280;11751;42.700;24.170;2023-03-04T07:22:59;93950.19;;;7.34;nan
23166;BME280;11751;42.700;24.170;2023-03-04T07:25:25;93940.00;;;7.36;nan
23166;BME280;11751;42.700;24.170;2023-03-04T07:27:50;93932.81;;;7.41;nan
23166;BME280;11751;42.700;24.170;2023-03-04T07:30:16;93936.53;;;7.43;nan
23166;BME280;11751;42.700;24.170;2023-03-04T07:32:41;93941.28;;;7.35;nan
23166;BME280;11751;42.700;24.170;2023-03-04T07:35:07;93946.53;;;7.26;nan
23166;BME280;11751;42.700;24.170;2023-03-04T07:37:32;93945.34;;;7.34;nan
23166;BME280;11751;42.700;24.170;2023-03-04T07:39:58;93936.56;;;7.30;nan
23166;BME280;11751;42.700;24.170;2023-03-04T07:42:23;93941.28;;;7.35;nan
23166;BME280;11751;42.700;24.170;2023-03-04T07:44:48;93941.69;;;7.39;nan
23166;BME280;11751;42.700;24.170;2023-03-04T07:47:14;93945.97;;;7.40;nan
23166;BME280;11751;42.700;24.170;2023-03-04T07:49:41;93946.19;;;7.42;nan
23166;BME280;11751;42.700;24.170;2023-03-04T07:52:06;93945.59;;;7.23;nan
23166;BME280;11751;42.700;24.170;2023-03-04T07:54:33;93934.72;;;7.46;nan
23166;BME280;11751;42.700;24.170;2023-03-04T07:56:58;93940.25;;;7.59;nan
23166;BME280;11751;42.700;24.170;2023-03-04T07:59:23;93936.59;;;7.63;nan
23166;BME280;11751;42.700;24.170;2023-03-04T08:01:50;93940.59;;;7.75;nan
23166;BME280;11751;42.700;24.170;2023-03-04T08:04:15;93937.75;;;7.88;nan
23166;BME280;11751;42.700;24.170;2023-03-04T08:06:41;93946.81;;;8.02;nan
23166;BME280;11751;42.700;24.170;2023-03-04T08:09:07;93946.81;;;8.02;nan
23166;BME280;11751;42.700;24.170;2023-03-04T08:11:34;93943.66;;;8.05;nan
23166;BME280;11751;42.700;24.170;2023-03-04T08:14:00;93930.63;;;8.21;nan
23166;BME280;11751;42.700;24.170;2023-03-04T08:16:26;93939.19;;;8.23;nan
23166;BME280;11751;42.700;24.170;2023-03-04T08:18:54;93939.13;;;8.15;nan
23166;BME280;11751;42.700;24.170;2023-03-04T08:21:21;93936.72;;;8.40;nan
23166;BME280;11751;42.700;24.170;2023-03-04T08:23:49;93936.84;;;8.54;nan
23166;BME280;11751;42.700;24.170;2023-03-04T08:26:24;93927.75;;;8.34;nan
23166;BME280;11751;42.700;24.170;2023-03-04T08:28:51;93927.22;;;8.15;nan
23166;BME280;11751;42.700;24.170;2023-03-04T08:31:17;93925.50;;;8.32;nan
23166;BME280;11751;42.700;24.170;2023-03-04T08:33:43;93928.28;;;8.52;nan
23166;BME280;11751;42.700;24.170;2023-03-04T08:36:09;93926.22;;;8.53;nan
23166;BME280;11751;42.700;24.170;2023-03-04T08:38:35;93928.19;;;8.65;nan
23166;BME280;11751;42.700;24.170;2023-03-04T08:41:00;93935.44;;;8.68;nan
23166;BME280;11751;42.700;24.170;2023-03-04T08:43:28;93930.97;;;8.65;nan
23166;BME280;11751;42.700;24.170;2023-03-04T08:45:53;93929.91;;;8.76;nan
23166;BME280;11751;42.700;24.170;2023-03-04T08:48:19;93927.63;;;8.67;nan
23166;BME280;11751;42.700;24.170;2023-03-04T08:50:46;93915.44;;;8.85;nan
23166;BME280;11751;42.700;24.170;2023-03-04T08:53:12;93916.06;;;8.91;nan
23166;BME280;11751;42.700;24.170;2023-03-04T08:55:38;93915.50;;;8.92;nan
23166;BME280;11751;42.700;24.170;2023-03-04T08:58:05;93911.50;;;8.80;nan
23166;BME280;11751;42.700;24.170;2023-03-04T09:00:31;93912.84;;;8.87;nan
23166;BME280;11751;42.700;24.170;2023-03-04T09:02:57;93910.25;;;8.89;nan
23166;BME280;11751;42.700;24.170;2023-03-04T09:05:22;93908.31;;;8.76;nan
23166;BME280;11751;42.700;24.170;2023-03-04T09:07:48;93905.41;;;8.89;nan
23166;BME280;11751;42.700;24.170;2023-03-04T09:10:13;93912.19;;;9.01;nan
23166;BME280;11751;42.700;24.170;2023-03-04T09:12:39;93904.00;;;9.03;nan
23166;BME280;11751;42.700;24.170;2023-03-04T09:15:05;93900.69;;;9.12;nan
23166;BME280;11751;42.700;24.170;2023-03-04T09:17:31;93908.34;;;9.19;nan
23166;BME280;11751;42.700;24.170;2023-03-04T09:19:57;93903.72;;;9.29;nan
23166;BME280;11751;42.700;24.170;2023-03-04T09:22:23;93902.56;;;9.17;nan
23166;BME280;11751;42.700;24.170;2023-03-04T09:24:48;93900.03;;;9.34;nan
23166;BME280;11751;42.700;24.170;2023-03-04T09:27:13;93901.38;;;9.48;nan
23166;BME280;11751;42.700;24.170;2023-03-04T09:29:39;93897.31;;;9.56;nan
23166;BME280;11751;42.700;24.170;2023-03-04T09:32:04;93897.84;;;9.55;nan
23166;BME280;11751;42.700;24.170;2023-03-04T09:34:30;93897.16;;;9.77;nan
23166;BME280;11751;42.700;24.170;2023-03-04T09:36:55;93893.94;;;9.58;nan
23166;BME280;11751;42.700;24.170;2023-03-04T09:39:21;93896.44;;;9.84;nan
23166;BME280;11751;42.700;24.170;2023-03-04T09:41:49;93889.13;;;9.73;nan
23166;BME280;11751;42.700;24.170;2023-03-04T09:46:56;93891.81;;;10.23;nan
23166;BME280;11751;42.700;24.170;2023-03-04T09:49:23;93884.56;;;10.21;nan
23166;BME280;11751;42.700;24.170;2023-03-04T09:55:27;93853.91;;;9.78;nan
23166;BME280;11751;42.700;24.170;2023-03-04T09:57:59;93879.50;;;10.26;nan
23166;BME280;11751;42.700;24.170;2023-03-04T10:05:56;93873.72;;;10.32;nan
23166;BME280;11751;42.700;24.170;2023-03-04T10:11:22;93869.19;;;10.66;nan
23166;BME280;11751;42.700;24.170;2023-03-04T10:16:32;93858.72;;;10.74;nan
23166;BME280;11751;42.700;24.170;2023-03-04T10:22:34;93847.50;;;10.74;nan
23166;BME280;11751;42.700;24.170;2023-03-04T10:25:25;93846.22;;;10.68;nan
23166;BME280;11751;42.700;24.170;2023-03-04T10:27:53;93843.59;;;10.70;nan
23166;BME280;11751;42.700;24.170;2023-03-04T10:33:19;93834.81;;;10.73;nan
23166;BME280;11751;42.700;24.170;2023-03-04T10:35:49;93824.28;;;10.96;nan
23166;BME280;11751;42.700;24.170;2023-03-04T10:38:19;93826.50;;;11.05;nan
23166;BME280;11751;42.700;24.170;2023-03-04T10:40:45;93832.03;;;11.20;nan
23166;BME280;11751;42.700;24.170;2023-03-04T10:43:18;93819.44;;;11.36;nan
23166;BME280;11751;42.700;24.170;2023-03-04T10:45:44;93820.38;;;11.31;nan
23166;BME280;11751;42.700;24.170;2023-03-04T10:48:25;93813.31;;;11.30;nan
23166;BME280;11751;42.700;24.170;2023-03-04T10:50:51;93800.50;;;11.44;nan
23166;BME280;11751;42.700;24.170;2023-03-04T10:53:32;93804.41;;;11.80;nan
23166;BME280;11751;42.700;24.170;2023-03-04T10:56:00;93797.94;;;11.70;nan
23166;BME280;11751;42.700;24.170;2023-03-04T10:58:27;93793.00;;;12.02;nan
23166;BME280;11751;42.700;24.170;2023-03-04T11:01:05;93800.78;;;12.11;nan
23166;BME280;11751;42.700;24.170;2023-03-04T11:03:34;93795.19;;;12.11;nan
23166;BME280;11751;42.700;24.170;2023-03-04T11:06:23;93780.25;;;12.26;nan
23166;BME280;11751;42.700;24.170;2023-03-04T11:08:53;93774.75;;;12.18;nan
23166;BME280;11751;42.700;24.170;2023-03-04T11:11:38;93781.31;;;12.13;nan
23166;BME280;11751;42.700;24.170;2023-03-04T11:16:55;93764.34;;;12.28;nan
23166;BME280;11751;42.700;24.170;2023-03-04T11:19:23;93765.91;;;12.39;nan
23166;BME280;11751;42.700;24.170;2023-03-04T11:21:50;93763.03;;;12.46;nan
23166;BME280;11751;42.700;24.170;2023-03-04T11:24:22;93761.38;;;12.43;nan
23166;BME280;11751;42.700;24.170;2023-03-04T11:27:14;93754.59;;;12.29;nan
23166;BME280;11751;42.700;24.170;2023-03-04T11:29:59;93744.34;;;12.07;nan
23166;BME280;11751;42.700;24.170;2023-03-04T11:32:32;93752.38;;;12.28;nan
23166;BME280;11751;42.700;24.170;2023-03-04T11:35:38;93757.91;;;12.35;nan
23166;BME280;11751;42.700;24.170;2023-03-04T11:38:17;93741.13;;;12.28;nan
23166;BME280;11751;42.700;24.170;2023-03-04T11:40:44;93733.63;;;12.47;nan
23166;BME280;11751;42.700;24.170;2023-03-04T11:56:59;93723.97;;;11.83;nan
23166;BME280;11751;42.700;24.170;2023-03-04T11:59:47;93719.09;;;12.07;nan
23166;BME280;11751;42.700;24.170;2023-03-04T12:02:18;93718.72;;;11.87;nan
23166;BME280;11751;42.700;24.170;2023-03-04T12:05:28;93715.91;;;11.87;nan
23166;BME280;11751;42.700;24.170;2023-03-04T12:08:11;93720.69;;;11.93;nan
23166;BME280;11751;42.700;24.170;2023-03-04T12:10:47;93715.00;;;11.84;nan
23166;BME280;11751;42.700;24.170;2023-03-04T12:13:47;93712.22;;;11.60;nan
23166;BME280;11751;42.700;24.170;2023-03-04T12:19:13;93697.06;;;11.80;nan
23166;BME280;11751;42.700;24.170;2023-03-04T12:32:31;93695.09;;;11.90;nan
23166;BME280;11751;42.700;24.170;2023-03-04T12:43:08;93683.75;;;12.38;nan
23166;BME280;11751;42.700;24.170;2023-03-04T12:51:35;93675.97;;;12.12;nan
23166;BME280;11751;42.700;24.170;2023-03-04T12:56:41;93661.38;;;12.31;nan
23166;BME280;11751;42.700;24.170;2023-03-04T12:59:13;93670.38;;;12.29;nan
23166;BME280;11751;42.700;24.170;2023-03-04T13:07:27;93655.69;;;12.04;nan
23166;BME280;11751;42.700;24.170;2023-03-04T13:10:04;93652.53;;;11.84;nan
23166;BME280;11751;42.700;24.170;2023-03-04T13:12:49;93652.03;;;11.78;nan
23166;BME280;11751;42.700;24.170;2023-03-04T13:17:55;93636.84;;;11.81;nan
23166;BME280;11751;42.700;24.170;2023-03-04T13:20:35;93637.44;;;11.79;nan
23166;BME280;11751;42.700;24.170;2023-03-04T13:23:02;93628.03;;;11.84;nan
23166;BME280;11751;42.700;24.170;2023-03-04T13:41:19;93632.78;;;11.33;nan
23166;BME280;11751;42.700;24.170;2023-03-04T13:43:47;93617.44;;;11.34;nan
23166;BME280;11751;42.700;24.170;2023-03-04T13:56:51;93610.94;;;11.56;nan
23166;BME280;11751;42.700;24.170;2023-03-04T13:59:31;93608.47;;;11.60;nan
23166;BME280;11751;42.700;24.170;2023-03-04T14:02:20;93598.56;;;11.59;nan
23166;BME280;11751;42.700;24.170;2023-03-04T14:12:28;93588.66;;;11.75;nan
23166;BME280;11751;42.700;24.170;2023-03-04T14:14:56;93592.13;;;11.66;nan
23166;BME280;11751;42.700;24.170;2023-03-04T14:17:32;93582.50;;;11.52;nan
23166;BME280;11751;42.700;24.170;2023-03-04T14:20:01;93586.88;;;11.70;nan
23166;BME280;11751;42.700;24.170;2023-03-04T14:22:37;93585.28;;;11.76;nan
23166;BME280;11751;42.700;24.170;2023-03-04T14:27:30;93581.16;;;11.60;nan
23166;BME280;11751;42.700;24.170;2023-03-04T14:29:59;93579.19;;;11.53;nan
23166;BME280;11751;42.700;24.170;2023-03-04T14:32:25;93585.28;;;11.76;nan
23166;BME280;11751;42.700;24.170;2023-03-04T14:35:00;93586.69;;;11.85;nan
23166;BME280;11751;42.700;24.170;2023-03-04T14:37:34;93580.91;;;11.83;nan
23166;BME280;11751;42.700;24.170;2023-03-04T14:40:04;93569.88;;;11.85;nan
23166;BME280;11751;42.700;24.170;2023-03-04T14:42:38;93576.63;;;11.82;nan
23166;BME280;11751;42.700;24.170;2023-03-04T14:45:07;93573.75;;;11.72;nan
23166;BME280;11751;42.700;24.170;2023-03-04T14:47:37;93562.75;;;11.84;nan
23166;BME280;11751;42.700;24.170;2023-03-04T14:50:06;93569.34;;;11.62;nan
23166;BME280;11751;42.700;24.170;2023-03-04T14:52:36;93571.25;;;11.76;nan
23166;BME280;11751;42.700;24.170;2023-03-04T14:57:45;93565.50;;;11.74;nan
23166;BME280;11751;42.700;24.170;2023-03-04T15:02:40;93558.25;;;11.54;nan
23166;BME280;11751;42.700;24.170;2023-03-04T15:05:16;93564.09;;;11.66;nan
23166;BME280;11751;42.700;24.170;2023-03-04T15:07:43;93553.53;;;11.57;nan
23166;BME280;11751;42.700;24.170;2023-03-04T15:10:20;93558.03;;;11.35;nan
23166;BME280;11751;42.700;24.170;2023-03-04T15:12:51;93550.53;;;11.38;nan
23166;BME280;11751;42.700;24.170;2023-03-04T15:17:59;93545.66;;;11.38;nan
23166;BME280;11751;42.700;24.170;2023-03-04T15:20:28;93549.34;;;11.41;nan
23166;BME280;11751;42.700;24.170;2023-03-04T15:23:02;93543.56;;;11.22;nan
23166;BME280;11751;42.700;24.170;2023-03-04T15:25:29;93541.34;;;11.20;nan
23166;BME280;11751;42.700;24.170;2023-03-04T15:27:55;93532.34;;;11.22;nan
23166;BME280;11751;42.700;24.170;2023-03-04T15:30:25;93540.25;;;11.16;nan
23166;BME280;11751;42.700;24.170;2023-03-04T15:32:53;93545.31;;;11.34;nan
23166;BME280;11751;42.700;24.170;2023-03-04T15:35:18;93532.84;;;11.11;nan